createdAt,value
2023-09-05T00:03:08.530Z,3.40
2023-09-05T00:08:13.025Z,3.35
2023-09-05T00:13:18.522Z,3.42
2023-09-05T00:18:22.601Z,3.20
2023-09-05T00:23:27.871Z,3.72
2023-09-05T00:28:34.408Z,3.58
2023-09-05T00:33:38.499Z,3.83
2023-09-05T00:38:43.441Z,3.85
2023-09-05T00:43:50.495Z,3.95
2023-09-05T00:48:58.247Z,3.67
2023-09-05T00:54:04.991Z,4.18
2023-09-05T00:59:12.292Z,3.30
2023-09-05T01:04:16.492Z,4.25
2023-09-05T01:09:31.848Z,3.22
2023-09-05T01:14:37.273Z,3.30
2023-09-05T01:19:42.560Z,3.58
2023-09-05T01:24:51.352Z,3.78
2023-09-05T01:29:56.968Z,3.63
2023-09-05T01:35:01.310Z,3.47
2023-09-05T01:40:08.485Z,3.50
2023-09-05T01:45:12.743Z,3.40
2023-09-05T01:50:16.859Z,3.30
2023-09-05T01:55:22.258Z,4.05
2023-09-05T02:00:26.367Z,3.50
2023-09-05T02:05:30.384Z,3.67
2023-09-05T02:10:35.788Z,4.40
2023-09-05T02:15:39.813Z,3.58
2023-09-05T02:20:43.982Z,3.80
2023-09-05T02:26:00.602Z,3.30
2023-09-05T02:31:07.753Z,4.13
2023-09-05T02:36:16.859Z,3.70
2023-09-05T02:41:22.467Z,3.88
2023-09-05T02:46:26.884Z,3.55
2023-09-05T02:51:31.016Z,3.75
2023-09-05T02:56:36.423Z,3.53
2023-09-05T03:01:40.663Z,3.45
2023-09-05T03:06:44.717Z,4.13
2023-09-05T03:11:51.435Z,3.97
2023-09-05T03:16:56.070Z,3.80
2023-09-05T03:22:00.636Z,3.50
2023-09-05T03:27:06.667Z,3.65
2023-09-05T03:32:11.312Z,3.10
2023-09-05T03:37:15.393Z,3.50
2023-09-05T03:42:20.999Z,4.10
2023-09-05T03:47:25.008Z,3.40
2023-09-05T03:52:28.955Z,3.33
2023-09-05T03:57:34.352Z,3.38
2023-09-05T04:02:38.525Z,2.97
2023-09-05T04:07:45.042Z,3.10
2023-09-05T04:12:52.443Z,3.63
2023-09-05T04:17:56.577Z,3.13
2023-09-05T04:23:00.623Z,3.42
2023-09-05T04:28:07.073Z,3.00
2023-09-05T04:33:12.422Z,3.45
2023-09-05T04:38:16.570Z,3.35
2023-09-05T04:43:22.281Z,2.85
2023-09-05T04:48:27.095Z,2.70
2023-09-05T04:53:31.479Z,3.15
2023-09-05T04:58:36.859Z,2.88
2023-09-05T05:03:41.230Z,3.40
2023-09-05T05:08:45.443Z,3.53
2023-09-05T05:13:51.106Z,3.17
2023-09-05T05:18:55.107Z,3.58
2023-09-05T05:23:59.143Z,3.03
2023-09-05T05:29:04.795Z,3.50
2023-09-05T05:34:08.994Z,3.30
2023-09-05T05:39:14.434Z,2.95
2023-09-05T05:44:19.798Z,2.95
2023-09-05T05:49:24.262Z,3.25
2023-09-05T05:54:28.845Z,2.83
2023-09-05T05:59:34.293Z,3.70
2023-09-05T06:04:38.423Z,3.47
2023-09-05T06:09:42.566Z,4.45
2023-09-05T06:14:48.291Z,3.17
2023-09-05T06:19:52.472Z,3.30
2023-09-05T06:24:56.547Z,2.90
2023-09-05T06:30:01.936Z,3.15
2023-09-05T06:35:06.975Z,3.15
2023-09-05T06:40:16.553Z,3.45
2023-09-05T06:45:22.415Z,3.35
2023-09-05T06:50:26.497Z,3.90
2023-09-05T06:55:35.866Z,3.65
2023-09-05T07:00:41.350Z,3.35
2023-09-05T07:05:59.936Z,3.63
2023-09-05T07:11:09.444Z,3.92
2023-09-05T07:16:14.871Z,3.40
2023-09-05T07:21:18.938Z,3.58
2023-09-05T07:26:23.092Z,3.70
2023-09-05T07:31:32.590Z,3.00
2023-09-05T07:36:40.787Z,2.65
2023-09-05T07:41:44.784Z,2.22
2023-09-05T07:46:50.156Z,2.70
2023-09-05T07:51:55.323Z,2.38
2023-09-05T07:56:59.745Z,1.92
2023-09-05T08:02:05.723Z,2.42
2023-09-05T08:07:09.798Z,1.70
2023-09-05T08:12:14.472Z,2.28
2023-09-05T08:17:20.056Z,2.15
2023-09-05T08:22:24.163Z,2.35
2023-09-05T08:27:30.555Z,2.10
2023-09-05T08:32:36.364Z,2.33
2023-09-05T08:37:40.594Z,2.73
2023-09-05T08:42:44.897Z,2.10
2023-09-05T08:47:50.453Z,1.70
2023-09-05T08:52:57.483Z,2.08
2023-09-05T08:58:02.887Z,1.70
2023-09-05T09:03:08.809Z,1.92
2023-09-05T09:08:13.008Z,2.40
2023-09-05T09:13:20.043Z,1.52
2023-09-05T09:18:28.406Z,2.10
2023-09-05T09:23:36.413Z,2.08
2023-09-05T09:28:41.257Z,1.70
2023-09-05T09:33:56.780Z,1.50
2023-09-05T09:39:08.834Z,1.52
2023-09-05T09:44:26.423Z,1.60
2023-09-05T09:49:33.621Z,1.75
2023-09-05T09:54:40.469Z,1.75
2023-09-05T09:59:51.735Z,1.35
2023-09-05T10:04:58.749Z,1.15
2023-09-05T10:10:03.630Z,1.90
2023-09-05T10:15:11.892Z,1.27
2023-09-05T10:20:22.724Z,1.48
2023-09-05T10:25:29.697Z,1.60
2023-09-05T10:30:43.029Z,1.75
2023-09-05T10:35:48.468Z,1.30
2023-09-05T10:40:52.533Z,1.27
2023-09-05T10:45:58.715Z,1.60
2023-09-05T10:51:12.787Z,1.35
2023-09-05T10:56:41.307Z,1.50
2023-09-05T11:01:58.221Z,1.70
2023-09-05T11:07:14.768Z,1.23
2023-09-05T11:12:20.136Z,1.40
2023-09-05T11:17:24.842Z,1.65
2023-09-05T11:22:30.412Z,1.52
2023-09-05T11:27:35.070Z,1.48
2023-09-05T11:32:40.939Z,1.63
2023-09-05T11:37:59.838Z,1.55
2023-09-05T11:43:05.601Z,1.10
2023-09-05T11:48:12.908Z,1.27
2023-09-05T11:53:21.434Z,1.20
2023-09-05T11:58:27.571Z,1.60
2023-09-05T12:03:32.797Z,1.35
2023-09-05T12:08:38.615Z,1.37
2023-09-05T12:13:45.163Z,1.05
2023-09-05T12:18:50.907Z,1.20
2023-09-05T12:23:56.863Z,1.20
2023-09-05T12:34:04.884Z,1.13
2023-09-05T12:39:10.301Z,1.10
2023-09-05T12:44:14.374Z,1.10
2023-09-05T12:49:18.750Z,1.17
2023-09-05T12:54:24.280Z,1.10
2023-09-05T12:59:28.997Z,1.27
2023-09-05T13:04:33.156Z,1.20
2023-09-05T13:09:38.523Z,1.15
2023-09-05T13:14:43.974Z,1.17
2023-09-05T13:19:48.457Z,1.15
2023-09-05T13:24:53.873Z,1.33
2023-09-05T13:29:58.164Z,0.90
2023-09-05T13:35:02.885Z,1.48
2023-09-05T13:40:10.417Z,1.77
2023-09-05T13:45:14.605Z,1.30
2023-09-05T13:50:22.231Z,1.10
2023-09-05T13:55:28.919Z,1.45
2023-09-05T14:00:34.276Z,1.00
2023-09-05T14:05:38.944Z,1.60
2023-09-05T14:10:47.585Z,0.93
2023-09-05T14:15:51.816Z,1.20
2023-09-05T14:20:55.857Z,1.23
2023-09-05T14:26:01.369Z,1.17
2023-09-05T14:31:05.492Z,1.17
2023-09-05T14:36:11.344Z,1.05
2023-09-05T14:41:16.884Z,1.13
2023-09-05T14:46:20.958Z,1.13
2023-09-05T14:51:25.330Z,1.40
2023-09-05T14:56:31.590Z,1.08
2023-09-05T15:01:35.751Z,1.00
2023-09-05T15:06:40.168Z,1.40
2023-09-05T15:11:45.665Z,1.30
2023-09-05T15:16:49.854Z,1.30
2023-09-05T15:21:54.036Z,1.40
2023-09-05T15:26:59.838Z,1.42
2023-09-05T15:32:04.194Z,1.25
2023-09-05T15:37:08.329Z,1.40
2023-09-05T15:42:14.636Z,1.50
2023-09-05T15:47:18.709Z,1.33
2023-09-05T15:52:23.144Z,1.25
2023-09-05T15:57:28.666Z,1.30
2023-09-05T16:02:32.959Z,1.17
2023-09-05T16:07:37.055Z,1.25
2023-09-05T16:12:42.523Z,1.20
2023-09-05T16:17:46.690Z,1.47
2023-09-05T16:22:52.807Z,1.10
2023-09-05T16:27:58.438Z,1.38
2023-09-05T16:33:02.640Z,1.50
2023-09-05T16:38:07.248Z,1.27
2023-09-05T16:43:12.742Z,1.65
2023-09-05T16:48:16.949Z,1.90
2023-09-05T16:53:21.040Z,1.70
2023-09-05T16:58:26.697Z,1.98
2023-09-05T17:03:31.532Z,1.13
2023-09-05T17:08:35.637Z,1.40
2023-09-05T17:13:42.055Z,1.40
2023-09-05T17:18:46.804Z,1.20
2023-09-05T17:23:52.263Z,1.35
2023-09-05T17:28:57.722Z,1.73
2023-09-05T17:34:02.322Z,1.90
2023-09-05T17:39:08.449Z,1.90
2023-09-05T17:44:13.846Z,1.90
2023-09-05T17:49:19.999Z,1.77
2023-09-05T17:59:29.531Z,1.70
2023-09-05T18:04:34.549Z,2.20
2023-09-05T18:09:38.972Z,2.47
2023-09-05T18:14:44.584Z,1.85
2023-09-05T18:19:48.842Z,1.60
2023-09-05T18:24:53.157Z,2.53
2023-09-05T18:29:59.742Z,1.92
2023-09-05T18:35:03.970Z,1.60
2023-09-05T18:40:09.538Z,1.63
2023-09-05T18:45:15.138Z,1.90
2023-09-05T18:50:20.569Z,2.10
2023-09-05T18:55:24.740Z,2.08
2023-09-05T19:00:30.323Z,1.90
2023-09-05T19:05:35.418Z,2.13
2023-09-05T19:10:39.898Z,1.90
2023-09-05T19:15:45.747Z,2.40
2023-09-05T19:20:55.673Z,1.83
2023-09-05T19:25:59.734Z,2.08
2023-09-05T19:31:05.147Z,1.80
2023-09-05T19:36:09.454Z,1.77
2023-09-05T19:41:15.049Z,1.70
2023-09-05T19:46:23.431Z,1.63
2023-09-05T19:51:27.632Z,1.70
2023-09-05T19:56:31.859Z,1.63
2023-09-05T20:01:37.664Z,1.70
2023-09-05T20:06:41.856Z,1.80
2023-09-05T20:11:46.034Z,1.50
2023-09-05T20:16:51.573Z,1.60
2023-09-05T20:21:57.388Z,2.00
2023-09-05T20:27:01.553Z,1.25
2023-09-05T20:32:09.934Z,1.60
2023-09-05T20:37:13.979Z,1.25
2023-09-05T20:42:18.316Z,1.40
2023-09-05T20:47:24.419Z,1.60
2023-09-05T20:52:28.482Z,1.48
2023-09-05T20:57:32.505Z,1.50
2023-09-05T21:02:38.019Z,1.48
2023-09-05T21:07:44.935Z,1.80
2023-09-05T21:12:49.236Z,1.73
2023-09-05T21:17:54.756Z,1.50
2023-09-05T21:22:59.527Z,2.00
2023-09-05T21:28:03.526Z,1.98
2023-09-05T21:33:09.078Z,1.77
2023-09-05T21:38:13.095Z,1.50
2023-09-05T21:43:17.491Z,1.85
2023-09-05T21:48:23.115Z,1.50
2023-09-05T21:53:27.137Z,1.63
2023-09-05T21:58:31.244Z,1.83
2023-09-05T22:03:36.689Z,1.70
2023-09-05T22:08:43.743Z,1.95
2023-09-05T22:13:47.825Z,1.50
2023-09-05T22:18:54.863Z,1.50
2023-09-05T22:24:00.941Z,1.70
2023-09-05T22:29:08.514Z,1.77
2023-09-05T22:34:14.934Z,1.60
2023-09-05T22:39:19.761Z,1.70
2023-09-05T22:44:26.273Z,1.70
2023-09-05T22:49:31.772Z,1.52
2023-09-05T22:54:35.900Z,1.73
2023-09-05T22:59:40.035Z,1.67
2023-09-05T23:04:45.813Z,1.80
2023-09-05T23:09:51.459Z,1.63
2023-09-05T23:14:55.948Z,2.00
2023-09-05T23:20:02.098Z,1.70
2023-09-05T23:25:07.527Z,1.87
2023-09-05T23:30:14.131Z,2.10
2023-09-05T23:40:23.502Z,2.17
2023-09-05T23:45:27.688Z,2.00
2023-09-05T23:50:33.105Z,2.00
2023-09-05T23:55:37.331Z,2.35
